F/V Memere Marie — FHSM — position and weather

sailwx.info

Track history (hours):
 
Tides and Currents Weather Stations Pressure Air Temp Water Temp Dewpoint Dewpoint Depression Visibility Wind Speed Wind Dir Waves Ship Positions

F/V Memere Marie

Last reported at 2018-Feb-22 06:12 UTC. Time now 2018-Feb-22 15:00 UTC.
Position N 47°27' W 003°26'.

Length 14 m.

Type: Fishing. MMSI: 228851000.

Date/timePositionNaut miles runAvg speedWind from/ knotsBaromVisibWave heightAir tempDewpointWater temp
2018-Feb-22 06:12N 47°27' W 003°26'1 6.3
2018-Feb-22 05:59N 47°28' W 003°26'3 6.3
2018-Feb-22 05:30N 47°31' W 003°25'3 6.3
2018-Feb-22 05:01N 47°34' W 003°24'3 6.4
2018-Feb-22 04:30N 47°38' W 003°23'3 6.5
2018-Feb-22 04:00N 47°41' W 003°22'3 6.1
2018-Feb-22 03:29N 47°44' W 003°22'0 0.0
2018-Feb-22 02:59N 47°44' W 003°22'0 0.0
2018-Feb-22 02:29N 47°44' W 003°22'2 5.0
2018-Feb-22 02:00N 47°41' W 003°22'4 7.8
2018-Feb-22 01:30N 47°38' W 003°24'5 6.8
2018-Feb-22 00:43N 47°33' W 003°29'4 0.2
2018-Feb-21 05:05N 47°36' W 003°25'1 8.2
2018-Feb-21 05:00N 47°36' W 003°24'4 8.6
2018-Feb-21 04:30N 47°41' W 003°22'3 5.8
2018-Feb-21 03:58N 47°44' W 003°22'0 0.0
2018-Feb-20 20:02N 47°44' W 003°22'0 0.0
2018-Feb-20 19:58N 47°44' W 003°22'3 7.1
2018-Feb-20 19:30N 47°40' W 003°22'4 7.9
2018-Feb-20 19:00N 47°37' W 003°24'8 0.8
2018-Feb-20 09:31N 47°31' W 003°32'0 3.8
2018-Feb-20 09:30N 47°31' W 003°32'2 3.3
2018-Feb-20 08:59N 47°32' W 003°31'1 0.3
2018-Feb-20 06:13N 47°32' W 003°31'2 7.9
2018-Feb-20 05:59N 47°33' W 003°30'4 5.4
2018-Feb-20 05:19N 47°35' W 003°25'2 5.9
2018-Feb-20 05:00N 47°37' W 003°23'3 7.0
2018-Feb-20 04:30N 47°40' W 003°23'3 6.0
2018-Feb-20 04:00N 47°43' W 003°22'1 1.4
2018-Feb-20 03:31N 47°44' W 003°22'0 0.4
2018-Feb-20 02:58N 47°44' W 003°22'0 0.7
2018-Feb-20 02:30N 47°43' W 003°22'4 8.5
2018-Feb-20 02:01N 47°39' W 003°23'11 7.3
2018-Feb-20 00:27N 47°29' W 003°31'4 0.5
2018-Feb-19 14:58N 47°34' W 003°32'3 3.0
2018-Feb-19 13:59N 47°31' W 003°30'9 1.1
2018-Feb-19 05:30N 47°40' W 003°29'4 8.1
2018-Feb-19 05:00N 47°41' W 003°23'2 5.0
2018-Feb-19 04:30N 47°44' W 003°22'  
2018-Feb-16 21:01N 47°44' W 003°22'0 0.0
2018-Feb-16 20:58N 47°44' W 003°22'0 0.0
2018-Feb-16 20:28N 47°44' W 003°22'0 0.0
2018-Feb-16 19:58N 47°44' W 003°22'0 0.9
2018-Feb-16 19:30N 47°43' W 003°22'3 6.7
2018-Feb-16 19:00N 47°41' W 003°25'8 4.0
2018-Feb-16 17:03N 47°35' W 003°32'1 3.8
2018-Feb-16 16:55N 47°35' W 003°32'6 0.5
2018-Feb-16 04:39N 47°29' W 003°30'3 3.3
2018-Feb-16 03:46N 47°31' W 003°32'1 3.7
2018-Feb-16 03:30N 47°32' W 003°32'2 3.3
2018-Feb-16 02:59N 47°34' W 003°32'2 3.8
2018-Feb-16 02:21N 47°35' W 003°35'0 1.4
2018-Feb-16 02:00N 47°35' W 003°34'2 3.8
2018-Feb-16 01:29N 47°34' W 003°32'6 3.6
2018-Feb-15 23:55N 47°28' W 003°29'2 0.1
2018-Feb-15 07:15N 47°29' W 003°32'6 5.4
2018-Feb-15 06:11N 47°34' W 003°28'1 7.5
2018-Feb-15 06:00N 47°34' W 003°27'4 7.5
2018-Feb-15 05:30N 47°37' W 003°23'4 7.8
2018-Feb-15 05:00N 47°41' W 003°22'2 4.6
2018-Feb-15 04:28N 47°44' W 003°22'0 0.0
2018-Feb-13 02:46N 47°44' W 003°22'0 0.0
2018-Feb-13 02:28N 47°44' W 003°22'0 0.0
2018-Feb-13 02:00N 47°44' W 003°22'3 6.4
2018-Feb-13 01:30N 47°41' W 003°22'4 7.7
2018-Feb-13 01:00N 47°37' W 003°23'8 4.7
2018-Feb-12 23:13N 47°30' W 003°31'1 3.2
2018-Feb-12 22:58N 47°31' W 003°30'1 0.8
2018-Feb-12 21:19N 47°29' W 003°30'1 3.4
2018-Feb-12 21:00N 47°30' W 003°30'2 0.3
2018-Feb-12 15:15N 47°32' W 003°31'1 3.6
2018-Feb-12 15:00N 47°33' W 003°31'2 0.9
2018-Feb-12 12:37N 47°35' W 003°33'1 3.6
2018-Feb-12 12:27N 47°35' W 003°32'0 0.2
2018-Feb-12 09:20N 47°34' W 003°32'4 3.1
2018-Feb-12 08:03N 47°30' W 003°32'1 3.5
2018-Feb-12 07:46N 47°31' W 003°31'2 3.7
2018-Feb-12 07:19N 47°33' W 003°32'2 3.6
2018-Feb-12 06:38N 47°35' W 003°33'0 3.8
2018-Feb-12 06:30N 47°35' W 003°32'  
Track history (hours):
 
Tides and Currents Weather Stations Pressure Air Temp Water Temp Dewpoint Dewpoint Depression Visibility Wind Speed Wind Dir Waves Ship Positions

F/V Memere Marie

Last reported at 2018-Feb-22 06:12 UTC. Time now 2018-Feb-22 15:00 UTC.
Position N 47°27' W 003°26'.

Length 14 m.

Type: Fishing. MMSI: 228851000.

Date/timePositionNaut miles runAvg speedWind from/ knotsBaromVisibWave heightAir tempDewpointWater temp
2018-Feb-22 06:12N 47°27' W 003°26'1 6.3
2018-Feb-22 05:59N 47°28' W 003°26'3 6.3
2018-Feb-22 05:30N 47°31' W 003°25'3 6.3
2018-Feb-22 05:01N 47°34' W 003°24'3 6.4
2018-Feb-22 04:30N 47°38' W 003°23'3 6.5
2018-Feb-22 04:00N 47°41' W 003°22'3 6.1
2018-Feb-22 03:29N 47°44' W 003°22'0 0.0
2018-Feb-22 02:59N 47°44' W 003°22'0 0.0
2018-Feb-22 02:29N 47°44' W 003°22'2 5.0
2018-Feb-22 02:00N 47°41' W 003°22'4 7.8
2018-Feb-22 01:30N 47°38' W 003°24'5 6.8
2018-Feb-22 00:43N 47°33' W 003°29'4 0.2
2018-Feb-21 05:05N 47°36' W 003°25'1 8.2
2018-Feb-21 05:00N 47°36' W 003°24'4 8.6
2018-Feb-21 04:30N 47°41' W 003°22'3 5.8
2018-Feb-21 03:58N 47°44' W 003°22'0 0.0
2018-Feb-20 20:02N 47°44' W 003°22'0 0.0
2018-Feb-20 19:58N 47°44' W 003°22'3 7.1
2018-Feb-20 19:30N 47°40' W 003°22'4 7.9
2018-Feb-20 19:00N 47°37' W 003°24'8 0.8
2018-Feb-20 09:31N 47°31' W 003°32'0 3.8
2018-Feb-20 09:30N 47°31' W 003°32'2 3.3
2018-Feb-20 08:59N 47°32' W 003°31'1 0.3
2018-Feb-20 06:13N 47°32' W 003°31'2 7.9
2018-Feb-20 05:59N 47°33' W 003°30'4 5.4
2018-Feb-20 05:19N 47°35' W 003°25'2 5.9
2018-Feb-20 05:00N 47°37' W 003°23'3 7.0
2018-Feb-20 04:30N 47°40' W 003°23'3 6.0
2018-Feb-20 04:00N 47°43' W 003°22'1 1.4
2018-Feb-20 03:31N 47°44' W 003°22'0 0.4
2018-Feb-20 02:58N 47°44' W 003°22'0 0.7
2018-Feb-20 02:30N 47°43' W 003°22'4 8.5
2018-Feb-20 02:01N 47°39' W 003°23'11 7.3
2018-Feb-20 00:27N 47°29' W 003°31'4 0.5
2018-Feb-19 14:58N 47°34' W 003°32'3 3.0
2018-Feb-19 13:59N 47°31' W 003°30'9 1.1
2018-Feb-19 05:30N 47°40' W 003°29'4 8.1
2018-Feb-19 05:00N 47°41' W 003°23'2 5.0
2018-Feb-19 04:30N 47°44' W 003°22'  
2018-Feb-16 21:01N 47°44' W 003°22'0 0.0
2018-Feb-16 20:58N 47°44' W 003°22'0 0.0
2018-Feb-16 20:28N 47°44' W 003°22'0 0.0
2018-Feb-16 19:58N 47°44' W 003°22'0 0.9
2018-Feb-16 19:30N 47°43' W 003°22'3 6.7
2018-Feb-16 19:00N 47°41' W 003°25'8 4.0
2018-Feb-16 17:03N 47°35' W 003°32'1 3.8
2018-Feb-16 16:55N 47°35' W 003°32'6 0.5
2018-Feb-16 04:39N 47°29' W 003°30'3 3.3
2018-Feb-16 03:46N 47°31' W 003°32'1 3.7
2018-Feb-16 03:30N 47°32' W 003°32'2 3.3
2018-Feb-16 02:59N 47°34' W 003°32'2 3.8
2018-Feb-16 02:21N 47°35' W 003°35'0 1.4
2018-Feb-16 02:00N 47°35' W 003°34'2 3.8
2018-Feb-16 01:29N 47°34' W 003°32'6 3.6
2018-Feb-15 23:55N 47°28' W 003°29'2 0.1
2018-Feb-15 07:15N 47°29' W 003°32'6 5.4
2018-Feb-15 06:11N 47°34' W 003°28'1 7.5
2018-Feb-15 06:00N 47°34' W 003°27'4 7.5
2018-Feb-15 05:30N 47°37' W 003°23'4 7.8
2018-Feb-15 05:00N 47°41' W 003°22'2 4.6
2018-Feb-15 04:28N 47°44' W 003°22'0 0.0
2018-Feb-13 02:46N 47°44' W 003°22'0 0.0
2018-Feb-13 02:28N 47°44' W 003°22'0 0.0
2018-Feb-13 02:00N 47°44' W 003°22'3 6.4
2018-Feb-13 01:30N 47°41' W 003°22'4 7.7
2018-Feb-13 01:00N 47°37' W 003°23'8 4.7
2018-Feb-12 23:13N 47°30' W 003°31'1 3.2
2018-Feb-12 22:58N 47°31' W 003°30'1 0.8
2018-Feb-12 21:19N 47°29' W 003°30'1 3.4
2018-Feb-12 21:00N 47°30' W 003°30'2 0.3
2018-Feb-12 15:15N 47°32' W 003°31'1 3.6
2018-Feb-12 15:00N 47°33' W 003°31'2 0.9
2018-Feb-12 12:37N 47°35' W 003°33'1 3.6
2018-Feb-12 12:27N 47°35' W 003°32'0 0.2
2018-Feb-12 09:20N 47°34' W 003°32'4 3.1
2018-Feb-12 08:03N 47°30' W 003°32'1 3.5
2018-Feb-12 07:46N 47°31' W 003°31'2 3.7
2018-Feb-12 07:19N 47°33' W 003°32'2 3.6
2018-Feb-12 06:38N 47°35' W 003°33'0 3.8
2018-Feb-12 06:30N 47°35' W 003°32'  

Dump ship's entire track history